Time;durP1;ratioP1;P1;durP2;ratioP2;P2;SDS_P1;SDS_P2;PMS_P1;PMS_P2;Temp;Humidity;BMP_temperature;BMP_pressure;BME280_temperature;BME280_humidity;BME280_pressure;Samples;Min_cycle;Max_cycle;Signal;HPM_P1;HPM_P2
2022/11/06 00:01:12;;;;;;;1999.90;999.90;;;;;;;1.82;100.00;101049.13;5021296;28;20057;-76
2022/11/06 00:03:37;;;;;;;1999.90;999.90;;;;;;;1.80;100.00;101037.75;5021186;28;20044;-77
2022/11/06 00:08:57;;;;;;;1999.90;999.90;;;;;;;1.74;100.00;101046.22;5024715;28;20041;-76
2022/11/06 00:11:22;;;;;;;1999.90;999.90;;;;;;;1.77;100.00;101047.19;5026688;28;20033;-77
2022/11/06 00:13:48;;;;;;;1999.90;999.90;;;;;;;1.77;100.00;101044.59;5022678;28;20038;-76
2022/11/06 00:16:13;;;;;;;1999.90;999.90;;;;;;;1.77;100.00;101041.97;5025181;28;20037;-76
2022/11/06 00:18:40;;;;;;;1999.90;999.90;;;;;;;1.75;100.00;101041.91;5023641;28;20107;-76
2022/11/06 00:21:28;;;;;;;1999.90;999.90;;;;;;;1.75;100.00;101044.50;5026918;28;20398;-76
2022/11/06 00:23:56;;;;;;;1999.90;999.90;;;;;;;1.72;100.00;101037.47;5024181;28;20034;-76
2022/11/06 00:26:23;;;;;;;1999.90;999.90;;;;;;;1.68;100.00;101048.63;5030087;28;20041;-76
2022/11/06 00:28:50;;;;;;;1999.90;999.90;;;;;;;1.72;100.00;101040.06;5025126;28;20037;-77
2022/11/06 00:31:20;;;;;;;1999.90;999.90;;;;;;;1.73;100.00;101046.19;5027956;28;20709;-76
2022/11/06 00:33:46;;;;;;;1999.90;999.90;;;;;;;1.72;100.00;101042.69;5024132;28;20462;-76
2022/11/06 00:36:17;;;;;;;1999.90;999.90;;;;;;;1.75;100.00;101045.41;5022787;28;20034;-76
2022/11/06 00:38:43;;;;;;;1999.90;999.90;;;;;;;1.76;100.00;101043.69;5022191;28;20033;-77
2022/11/06 00:41:10;;;;;;;1999.90;999.90;;;;;;;1.74;100.00;101038.44;5025787;28;20044;-76
2022/11/06 00:43:36;;;;;;;1999.90;999.90;;;;;;;1.70;100.00;101036.56;5024364;28;20117;-76
2022/11/06 00:46:07;;;;;;;1999.90;999.90;;;;;;;1.70;100.00;101036.56;5023692;28;20564;-77
2022/11/06 00:48:33;;;;;;;1999.90;999.90;;;;;;;1.73;100.00;101039.28;5022270;28;20128;-76
2022/11/06 00:51:13;;;;;;;1999.90;999.90;;;;;;;1.78;100.00;101046.34;5030021;28;20084;-76
2022/11/06 00:53:39;;;;;;;1999.90;999.90;;;;;;;1.77;100.00;101037.66;5024280;28;20037;-76
2022/11/06 00:56:07;;;;;;;1999.90;999.90;;;;;;;1.77;100.00;101047.19;5021812;28;20049;-77
2022/11/06 00:58:32;;;;;;;1999.90;999.90;;;;;;;1.76;100.00;101041.09;5021975;28;20034;-76
2022/11/06 01:01:23;;;;;;;1999.90;999.90;;;;;;;1.74;100.00;101042.75;5025573;28;20037;-76
2022/11/06 01:04:16;;;;;;;1999.90;999.90;;;;;;;1.73;100.00;101047.06;5022432;28;20037;-77
2022/11/06 01:06:44;;;;;;;1999.90;999.90;;;;;;;1.72;100.00;101047.88;5025965;28;20037;-77
2022/11/06 01:09:12;;;;;;;1999.90;999.90;;;;;;;1.75;100.00;101045.41;5024965;28;20041;-77
2022/11/06 01:11:40;;;;;;;1999.90;999.90;;;;;;;1.77;100.00;101052.38;5031960;28;20090;-77
2022/11/06 01:14:07;;;;;;;1999.90;999.90;;;;;;;1.74;100.00;101048.84;5026901;28;20029;-77
2022/11/06 01:16:33;;;;;;;1999.90;999.90;;;;;;;1.74;100.00;101048.84;5028239;28;20065;-77
2022/11/06 01:18:59;;;;;;;1999.90;999.90;;;;;;;1.78;100.00;101042.03;5022807;28;20503;-76
2022/11/06 01:21:33;;;;;;;1999.90;999.90;;;;;;;1.82;100.00;101040.44;5035923;28;20040;-76
2022/11/06 01:24:02;;;;;;;1999.90;999.90;;;;;;;1.81;100.00;101038.66;5022302;28;20026;-76
2022/11/06 01:26:28;;;;;;;1999.90;999.90;;;;;;;1.83;100.00;101034.38;5025928;28;20041;-77
2022/11/06 01:28:55;;;;;;;1999.90;999.90;;;;;;;1.81;100.00;101033.44;5022598;28;20493;-77
2022/11/06 01:31:22;;;;;;;1999.90;999.90;;;;;;;1.75;100.00;101034.97;5025147;28;20074;-77
2022/11/06 01:33:48;;;;;;;1999.90;999.90;;;;;;;1.71;100.00;101027.91;5021723;28;20408;-77
2022/11/06 01:36:16;;;;;;;1999.90;999.90;;;;;;;1.69;100.00;101029.56;5022486;28;20041;-77
2022/11/06 01:38:42;;;;;;;1999.90;999.90;;;;;;;1.66;100.00;101020.75;5022975;28;20120;-76
2022/11/06 01:41:10;;;;;;;1999.90;999.90;;;;;;;1.58;100.00;101024.78;5024937;28;20038;-77
2022/11/06 01:43:49;;;;;;;1999.90;999.90;;;;;;;1.57;100.00;101018.69;5024350;28;20034;-77
2022/11/06 01:46:17;;;;;;;1999.90;999.90;;;;;;;1.59;100.00;101021.34;5024778;28;20042;-77
2022/11/06 01:48:46;;;;;;;1999.90;999.90;;;;;;;1.57;100.00;101029.09;5028216;28;20060;-76
2022/11/06 01:51:12;;;;;;;1999.90;999.90;;;;;;;1.58;100.00;101023.06;5029792;28;20042;-76
2022/11/06 01:53:38;;;;;;;1999.90;999.90;;;;;;;1.57;100.00;101021.28;5024518;28;20065;-77
2022/11/06 01:56:08;;;;;;;1999.90;999.90;;;;;;;1.53;100.00;101014.22;5029651;28;20116;-77
2022/11/06 01:58:37;;;;;;;1999.90;999.90;;;;;;;1.57;100.00;101012.59;5024610;28;20403;-76
2022/11/06 02:01:03;;;;;;;1999.90;999.90;;;;;;;1.60;100.00;101008.41;5026395;28;20451;-77
2022/11/06 02:03:29;;;;;;;1999.90;999.90;;;;;;;1.62;100.00;101006.72;5027997;28;20042;-76
2022/11/06 02:05:56;;;;;;;1999.90;999.90;;;;;;;1.53;100.00;101002.06;5022698;28;20471;-76
2022/11/06 02:08:22;;;;;;;1999.90;999.90;;;;;;;1.51;100.00;101003.72;5022560;28;20492;-76
2022/11/06 02:10:49;;;;;;;1999.90;999.90;;;;;;;1.45;100.00;101000.91;5021326;28;20084;-76
2022/11/06 02:13:40;;;;;;;1999.90;999.90;;;;;;;1.46;100.00;100996.59;5023809;28;20423;-76
2022/11/06 02:16:48;;;;;;;1999.90;999.90;;;;;;;1.50;100.00;100996.75;5023382;28;20029;-76
2022/11/06 02:19:26;;;;;;;1999.90;999.90;;;;;;;1.52;100.00;100996.84;5022413;28;20076;-76
2022/11/06 02:21:57;;;;;;;1999.90;999.90;;;;;;;1.51;100.00;100988.13;5027374;28;20053;-76
2022/11/06 02:24:46;;;;;;;1999.90;999.90;;;;;;;1.57;100.00;100987.47;5023527;28;20033;-77
2022/11/06 02:27:14;;;;;;;1999.90;999.90;;;;;;;1.60;100.00;100991.88;5022227;28;20117;-77
2022/11/06 02:29:55;;;;;;;1999.90;999.90;;;;;;;1.62;100.00;100988.53;5027256;28;20039;-76
2022/11/06 02:32:38;;;;;;;1999.90;999.90;;;;;;;1.60;100.00;100992.81;5022229;28;20038;-76
2022/11/06 02:35:30;;;;;;;1999.90;999.90;;;;;;;1.61;100.00;100993.69;5021425;28;20045;-77
2022/11/06 02:38:02;;;;;;;1999.90;999.90;;;;;;;1.62;100.00;101000.66;5021512;28;20445;-76
2022/11/06 02:40:32;;;;;;;1999.90;999.90;;;;;;;1.63;100.00;100992.91;5022490;28;20029;-76
2022/11/06 02:43:02;;;;;;;1999.90;999.90;;;;;;;1.62;100.00;100988.53;5027917;28;20037;-77
2022/11/06 02:45:30;;;;;;;1999.90;999.90;;;;;;;1.63;100.00;100992.03;5019628;28;20029;-76
2022/11/06 02:47:59;;;;;;;1999.90;999.90;;;;;;;1.65;100.00;100995.56;5023040;28;20042;-77
2022/11/06 02:50:32;;;;;;;1999.90;999.90;;;;;;;1.62;100.00;100993.72;5032819;28;20102;-77
2022/11/06 02:53:05;;;;;;;;;;;;;;;1.61;100.00;100991.97;5025338;28;20124;-76
2022/11/06 02:55:35;;;;;;;1999.90;999.90;;;;;;;1.63;100.00;100992.03;5022367;28;19917;-77
2022/11/06 02:58:07;;;;;;;1999.90;999.90;;;;;;;1.61;100.00;100985.88;5020181;28;20061;-76
2022/11/06 03:00:34;;;;;;;1999.90;999.90;;;;;;;1.60;100.00;100991.88;5023568;28;20077;-77
2022/11/06 03:03:05;;;;;;;1999.90;999.90;;;;;;;1.60;100.00;100990.22;5020542;28;20029;-77
2022/11/06 03:06:04;;;;;;;1999.90;999.90;;;;;;;1.59;100.00;100980.59;5022922;28;20442;-77
2022/11/06 03:08:39;;;;;;;1999.90;999.90;;;;;;;1.56;100.00;100984.81;5021031;28;20401;-77
2022/11/06 03:11:16;;;;;;;1999.90;999.90;;;;;;;1.50;100.00;100980.28;5020657;28;20037;-76
2022/11/06 03:13:50;;;;;;;1999.90;999.90;;;;;;;1.48;100.00;100984.53;5021111;28;20473;-77
2022/11/06 03:16:41;;;;;;;1999.90;999.90;;;;;;;1.49;100.00;100975.88;5019627;28;20080;-76
2022/11/06 03:19:34;;;;;;;1999.90;999.90;;;;;;;1.49;100.00;100975.88;5022954;28;20038;-77
2022/11/06 03:22:07;;;;;;;;;;;;;;;1.47;100.00;100990.56;5020473;28;20038;-77
2022/11/06 03:24:40;;;;;;;1999.90;999.90;;;;;;;1.38;100.00;100985.00;5021095;28;19913;-76
2022/11/06 03:27:18;;;;;;;1999.90;999.90;;;;;;;1.35;100.00;100982.28;5022766;28;20036;-76
2022/11/06 03:29:49;;;;;;;1999.90;999.90;;;;;;;1.34;100.00;100985.69;5022555;28;20120;-77
2022/11/06 03:32:22;;;;;;;1999.90;999.90;;;;;;;1.37;100.00;100975.44;5019639;28;20041;-77
2022/11/06 03:34:54;;;;;;;1999.90;999.90;;;;;;;1.39;100.00;100965.97;5023690;28;20037;-76
2022/11/06 03:37:33;;;;;;;1999.90;999.90;;;;;;;1.36;100.00;100971.94;5020245;28;20084;-77
2022/11/06 03:40:04;;;;;;;1999.90;999.90;;;;;;;1.36;100.00;100969.31;5022613;28;20120;-76
2022/11/06 03:42:30;;;;;;;1999.90;999.90;;;;;;;1.34;100.00;100972.69;5025254;28;20492;-76
2022/11/06 03:45:01;;;;;;;1999.90;999.90;;;;;;;1.30;100.00;100976.91;5022371;28;20065;-77
2022/11/06 03:47:37;;;;;;;1999.90;999.90;;;;;;;1.28;100.00;100975.94;5023637;28;20124;-76
2022/11/06 03:50:12;;;;;;;1999.90;999.90;;;;;;;1.21;100.00;100969.66;5026716;28;20495;-77
2022/11/06 03:52:48;;;;;;;1999.90;999.90;;;;;;;1.18;100.00;100971.22;5026538;28;20129;-77
2022/11/06 03:55:17;;;;;;;1999.90;999.90;;;;;;;1.20;100.00;100965.25;5023513;28;20535;-76
2022/11/06 03:57:58;;;;;;;1999.90;999.90;;;;;;;1.20;100.00;100965.25;5025456;28;20129;-77
2022/11/06 04:00:23;;;;;;;1999.90;999.90;;;;;;;1.20;100.00;100967.84;5026645;28;20038;-77
2022/11/06 04:03:03;;;;;;;1999.90;999.90;;;;;;;1.18;100.00;100979.94;5035086;28;20123;-77
2022/11/06 04:05:33;;;;;;;1999.90;999.90;;;;;;;1.21;100.00;100982.66;5026468;28;20481;-77
2022/11/06 04:16:20;;;;;;;1999.90;999.90;;;;;;;1.15;100.00;100966.78;5024578;28;20084;-76
2022/11/06 04:18:45;;;;;;;1999.90;999.90;;;;;;;1.16;100.00;100965.97;5027879;28;20407;-77
2022/11/06 04:21:30;;;;;;;1999.90;999.90;;;;;;;1.16;100.00;100973.78;5032694;28;20530;-77
2022/11/06 04:27:32;;;;;;;1999.90;999.90;;;;;;;1.19;100.00;100975.63;5020065;28;20049;-76
2022/11/06 04:30:03;;;;;;;1999.90;999.90;;;;;;;1.17;100.00;100972.06;5030575;28;20076;-77
2022/11/06 04:33:11;;;;;;;1999.90;999.90;;;;;;;1.20;100.00;100961.78;5021077;28;20120;-77
2022/11/06 04:35:50;;;;;;;1999.90;999.90;;;;;;;1.37;100.00;100962.44;5024019;28;20038;-76
2022/11/06 04:38:34;;;;;;;1999.90;999.90;;;;;;;1.55;100.00;100963.13;5022895;28;20045;-76
2022/11/06 04:41:15;;;;;;;1999.90;999.90;;;;;;;1.45;100.00;100961.88;5025267;28;20045;-76
2022/11/06 04:43:50;;;;;;;1999.90;999.90;;;;;;;1.38;100.00;100954.69;5024988;28;20387;-76
2022/11/06 04:46:25;;;;;;;1999.90;999.90;;;;;;;1.34;100.00;100959.69;5024004;28;20488;-76
2022/11/06 04:48:51;;;;;;;1999.90;999.90;;;;;;;1.27;100.00;100958.59;5025560;28;20041;-76
2022/11/06 04:51:21;;;;;;;1999.90;999.90;;;;;;;1.19;100.00;100967.81;5030462;28;20407;-77
2022/11/06 04:53:50;;;;;;;1999.90;999.90;;;;;;;1.20;100.00;100965.25;5022677;28;20049;-77
2022/11/06 04:56:24;;;;;;;1999.90;999.90;;;;;;;1.25;100.00;100961.13;5021633;28;20037;-77
2022/11/06 04:58:49;;;;;;;1999.90;999.90;;;;;;;1.28;100.00;100956.06;5031516;28;20034;-77
2022/11/06 05:01:15;;;;;;;1999.90;999.90;;;;;;;1.29;100.00;100952.63;5025026;28;20037;-77
2022/11/06 05:03:40;;;;;;;1999.90;999.90;;;;;;;1.29;100.00;100950.03;5017945;28;20038;-76
2022/11/06 05:06:05;;;;;;;1999.90;999.90;;;;;;;1.31;100.00;100945.78;5022862;28;20485;-76
2022/11/06 05:08:31;;;;;;;1999.90;999.90;;;;;;;1.31;100.00;100939.69;5027201;28;20545;-77
2022/11/06 05:10:56;;;;;;;1999.90;999.90;;;;;;;1.28;100.00;100945.66;5026783;28;20503;-76
2022/11/06 05:13:21;;;;;;;1999.90;999.90;;;;;;;1.25;100.00;100942.91;5021762;28;20400;-76
2022/11/06 05:15:47;;;;;;;1999.90;999.90;;;;;;;1.30;100.00;100935.31;5024266;28;20432;-77
2022/11/06 05:18:12;;;;;;;1999.90;999.90;;;;;;;1.47;100.00;100933.34;5022130;28;20508;-77
2022/11/06 05:20:37;;;;;;;1999.90;999.90;;;;;;;1.51;100.00;100932.63;5027188;28;20484;-77
2022/11/06 05:23:03;;;;;;;1999.90;999.90;;;;;;;1.47;100.00;100934.22;5023197;28;20671;-77
2022/11/06 05:25:31;;;;;;;1999.90;999.90;;;;;;;1.47;100.00;100926.41;5022099;28;20049;-76
2022/11/06 05:27:57;;;;;;;1999.90;999.90;;;;;;;1.46;100.00;100926.34;5021756;28;20037;-77
2022/11/06 05:30:23;;;;;;;1999.90;999.90;;;;;;;1.40;100.00;100933.94;5025050;28;20419;-77
2022/11/06 05:32:49;;;;;;;1999.90;999.90;;;;;;;1.30;100.00;100930.97;5023945;28;20446;-77
2022/11/06 05:35:15;;;;;;;1999.90;999.90;;;;;;;1.21;100.00;100929.78;5026046;28;20042;-77
2022/11/06 05:37:40;;;;;;;1999.90;999.90;;;;;;;1.12;100.00;100927.69;5029970;28;20045;-77
2022/11/06 05:40:07;;;;;;;1999.90;999.90;;;;;;;1.07;100.00;100927.53;5027648;28;20400;-77
2022/11/06 05:42:33;;;;;;;1999.90;999.90;;;;;;;1.05;100.00;100929.19;5021369;28;20017;-77
2022/11/06 05:44:58;;;;;;;1999.90;999.90;;;;;;;1.01;100.00;100923.78;5030106;28;20046;-77
2022/11/06 05:47:24;;;;;;;1999.90;999.90;;;;;;;0.95;100.00;100927.03;5028642;28;20084;-76
2022/11/06 05:49:49;;;;;;;1999.90;999.90;;;;;;;0.91;100.00;100919.94;5033820;28;20028;-77
2022/11/06 05:52:14;;;;;;;1999.90;999.90;;;;;;;0.90;100.00;100925.09;5027888;28;20044;-77
2022/11/06 05:54:40;;;;;;;1999.90;999.90;;;;;;;0.92;100.00;100921.72;5032626;28;20037;-77
2022/11/06 05:57:05;;;;;;;1999.90;999.90;;;;;;;0.94;100.00;100921.78;5031873;28;20033;-77
2022/11/06 05:59:30;;;;;;;1999.90;999.90;;;;;;;0.93;100.00;100918.28;5029724;28;20033;-77
2022/11/06 06:01:57;;;;;;;1999.90;999.90;;;;;;;0.91;100.00;100911.25;5027487;28;20100;-77
2022/11/06 06:04:22;;;;;;;1999.90;999.90;;;;;;;0.90;100.00;100917.31;5032396;28;20052;-77
2022/11/06 06:06:47;;;;;;;1999.90;999.90;;;;;;;0.81;100.00;100923.91;5023434;28;20033;-77
2022/11/06 06:09:13;;;;;;;1999.90;999.90;;;;;;;0.79;100.00;100920.38;5022610;28;20120;-77
2022/11/06 06:11:38;;;;;;;1999.90;999.90;;;;;;;0.80;100.00;100924.72;5029318;28;20060;-77
2022/11/06 06:14:04;;;;;;;1999.90;999.90;;;;;;;0.80;100.00;100927.31;5022278;28;20735;-77
2022/11/06 06:16:29;;;;;;;1999.90;999.90;;;;;;;0.78;100.00;100930.69;5025962;28;20025;-77
2022/11/06 06:18:54;;;;;;;1999.90;999.90;;;;;;;0.80;100.00;100922.13;5028473;28;20053;-77
2022/11/06 06:21:20;;;;;;;1999.90;999.90;;;;;;;0.80;100.00;100936.84;5024690;28;20044;-77
2022/11/06 06:23:45;;;;;;;1999.90;999.90;;;;;;;0.79;100.00;100935.94;5028671;28;20045;-77
2022/11/06 06:26:10;;;;;;;1999.90;999.90;;;;;;;0.79;100.00;100937.66;5029306;28;20105;-74
2022/11/06 06:28:36;;;;;;;1999.90;999.90;;;;;;;0.80;100.00;100944.63;5024013;28;20069;-75
2022/11/06 06:31:05;;;;;;;1999.90;999.90;;;;;;;0.84;100.00;100943.94;5023671;28;20033;-75
2022/11/06 06:33:31;;;;;;;1999.90;999.90;;;;;;;0.89;100.00;100950.16;5021010;28;20551;-75
2022/11/06 06:35:56;;;;;;;1999.90;999.90;;;;;;;0.94;100.00;100952.97;5021628;28;20037;-75
2022/11/06 06:38:22;;;;;;;1999.90;999.90;;;;;;;0.96;100.00;100961.72;5027571;28;20065;-75
2022/11/06 06:40:47;;;;;;;1999.90;999.90;;;;;;;0.99;100.00;100962.72;5024301;28;20049;-75
2022/11/06 06:43:12;;;;;;;1999.90;999.90;;;;;;;1.03;100.00;100961.13;5023047;28;20073;-75
2022/11/06 06:45:38;;;;;;;1999.90;999.90;;;;;;;1.09;100.00;100950.97;5019676;28;20026;-75
2022/11/06 06:48:04;;;;;;;1999.90;999.90;;;;;;;1.23;100.00;100964.50;5024820;28;20064;-75
2022/11/06 06:50:30;;;;;;;1999.90;999.90;;;;;;;1.37;100.00;100971.13;5031057;28;20041;-75
2022/11/06 06:52:58;;;;;;;1999.90;999.90;;;;;;;1.46;100.00;100974.06;5024561;28;20041;-75
2022/11/06 06:55:24;;;;;;;1999.90;999.90;;;;;;;1.58;100.00;100972.75;5022302;28;20068;-75
2022/11/06 06:58:00;;;;;;;1999.90;999.90;;;;;;;1.71;100.00;100978.47;5024752;28;20064;-75
2022/11/06 07:00:25;;;;;;;1999.90;999.90;;;;;;;1.82;100.00;100972.78;5023875;28;20033;-76
2022/11/06 07:02:51;;;;;;;1999.90;999.90;;;;;;;1.92;100.00;100977.47;5023615;28;20104;-75
2022/11/06 07:05:17;;;;;;;1999.90;999.90;;;;;;;1.99;100.00;100982.06;5030240;28;20484;-75
2022/11/06 07:07:42;;;;;;;1999.90;999.90;;;;;;;2.14;100.00;100976.50;5031063;28;20041;-75
2022/11/06 07:10:08;;;;;;;1999.90;999.90;;;;;;;2.27;100.00;100978.72;5027755;28;20033;-75
2022/11/06 07:12:33;;;;;;;1999.90;999.90;;;;;;;2.39;100.00;100967.84;5023400;28;20091;-75
2022/11/06 07:14:58;;;;;;;1999.90;999.90;;;;;;;2.48;100.00;100978.56;5023411;28;20488;-75
2022/11/06 07:17:24;;;;;;;1999.90;999.90;;;;;;;2.55;100.00;100979.66;5027904;28;20049;-75
2022/11/06 07:19:49;;;;;;;1999.90;999.90;;;;;;;2.61;100.00;100985.94;5027777;28;20042;-75
2022/11/06 07:22:14;;;;;;;1999.90;999.90;;;;;;;2.69;100.00;100977.50;5027392;28;20514;-74
2022/11/06 07:24:40;;;;;;;1999.90;999.90;;;;;;;2.75;100.00;100980.31;5023393;28;20430;-75
2022/11/06 07:27:05;;;;;;;1999.90;999.90;;;;;;;2.85;100.00;100978.03;5025457;28;20040;-75
2022/11/06 07:29:30;;;;;;;1999.90;999.90;;;;;;;2.98;100.00;100968.00;5027886;28;20034;-75
2022/11/06 07:31:56;;;;;;;1999.90;999.90;;;;;;;3.15;100.00;100973.78;5028932;28;20061;-75
2022/11/06 07:34:21;;;;;;;1999.90;999.90;;;;;;;3.27;100.00;100958.47;5025438;28;20132;-75
2022/11/06 07:36:46;;;;;;;1999.90;999.90;;;;;;;3.39;100.00;100964.06;5032198;28;20057;-75
2022/11/06 07:39:12;;;;;;;1999.90;999.90;;;;;;;3.53;100.00;100966.19;5033047;28;20032;-76
2022/11/06 07:41:37;;;;;;;1999.90;999.90;;;;;;;3.70;100.00;100962.38;5033681;28;20088;-76
2022/11/06 07:44:02;;;;;;;1999.90;999.90;;;;;;;3.86;100.00;100964.56;5044753;28;20091;-76
2022/11/06 07:46:28;;;;;;;1999.90;999.90;;;;;;;4.02;100.00;100965.88;5036935;28;20665;-76
2022/11/06 07:48:53;;;;;;;1999.90;999.90;;;;;;;4.13;100.00;100966.16;5031712;28;20129;-76
2022/11/06 07:51:19;;;;;;;1999.90;999.90;;;;;;;4.23;100.00;100962.94;5033492;28;20095;-76
2022/11/06 07:53:44;;;;;;;1999.90;999.90;;;;;;;4.27;100.00;100956.97;5029964;28;20415;-75
2022/11/06 07:56:10;;;;;;;1999.90;999.90;;;;;;;4.29;100.00;100963.09;5022572;28;20037;-76
2022/11/06 07:58:35;;;;;;;1999.90;999.90;;;;;;;4.32;100.00;100955.34;5020097;28;20037;-75
2022/11/06 08:01:01;;;;;;;1999.90;999.90;;;;;;;4.38;100.00;100960.72;5027782;28;20042;-76
2022/11/06 08:03:28;;;;;;;1999.90;999.90;;;;;;;4.47;100.00;100956.59;5024701;28;20041;-76
2022/11/06 08:05:54;;;;;;;1999.90;999.90;;;;;;;4.61;100.00;100960.41;5025334;28;20388;-76
2022/11/06 08:08:19;;;;;;;1999.90;999.90;;;;;;;4.76;100.00;100952.06;5022754;28;20091;-76
2022/11/06 08:10:46;;;;;;;1999.90;999.90;;;;;;;4.88;100.00;100944.53;5028294;28;20029;-76
2022/11/06 08:13:16;;;;;;;1999.90;999.90;;;;;;;5.02;100.00;100937.88;5031080;28;20038;-76
2022/11/06 08:15:42;;;;;;;1999.90;999.90;;;;;;;5.12;100.00;100933.75;5036796;28;20036;-76
2022/11/06 08:18:08;;;;;;;1999.90;999.90;;;;;;;5.23;100.00;100942.69;5030492;28;20124;-76
2022/11/06 08:20:34;;;;;;;1999.90;999.90;;;;;;;5.37;100.00;100943.03;5037246;28;20036;-76
2022/11/06 08:23:02;;;;;;;1999.90;999.90;;;;;;;5.53;100.00;100938.09;5031279;28;20097;-76
2022/11/06 08:25:29;;;;;;;1999.90;999.90;;;;;;;5.62;100.00;100926.06;5038451;28;20032;-76
2022/11/06 08:27:55;;;;;;;1999.90;999.90;;;;;;;5.74;100.00;100935.03;5029579;28;20036;-76
2022/11/06 08:30:21;;;;;;;1999.90;999.90;;;;;;;5.85;100.00;100929.16;5032874;28;20040;-76
2022/11/06 08:32:46;;;;;;;1999.90;999.90;;;;;;;5.97;100.00;100944.25;5036227;28;20033;-76
2022/11/06 08:35:11;;;;;;;1999.90;999.90;;;;;;;6.06;100.00;100944.44;5018213;28;20076;-76
2022/11/06 08:37:37;;;;;;;1999.90;999.90;;;;;;;6.12;100.00;100938.44;5026194;28;20029;-76
2022/11/06 08:40:03;;;;;;;1999.90;999.90;;;;;;;6.24;100.00;100937.78;5039346;28;20068;-76
2022/11/06 08:42:28;;;;;;;1999.90;999.90;;;;;;;6.33;100.00;100925.69;5024167;28;20083;-76
2022/11/06 08:44:54;;;;;;;1999.90;999.90;;;;;;;6.48;100.00;100924.22;5027923;28;20033;-76
2022/11/06 08:47:19;;;;;;;1999.90;999.90;;;;;;;6.53;100.00;100920.81;5024751;28;20120;-76
2022/11/06 08:49:44;;;;;;;1999.90;999.90;;;;;;;6.66;100.00;100921.00;5027636;28;20041;-76
2022/11/06 08:52:10;;;;;;;1999.90;999.90;;;;;;;6.68;100.00;100919.28;5025116;28;20037;-76
2022/11/06 08:54:35;;;;;;;1999.90;999.90;;;;;;;6.85;100.00;100917.81;5022095;28;20033;-76
2022/11/06 08:57:00;;;;;;;1999.90;999.90;;;;;;;6.93;100.00;100913.56;5021728;28;20582;-76
2022/11/06 08:59:26;;;;;;;1999.90;999.90;;;;;;;7.05;100.00;100911.94;5021008;28;20427;-76
2022/11/06 09:01:51;;;;;;;1999.90;999.90;;;;;;;7.13;100.00;100908.59;5024986;28;20038;-76
2022/11/06 09:04:17;;;;;;;1999.90;999.90;;;;;;;7.20;100.00;100899.03;5024453;28;20069;-76
2022/11/06 09:06:42;;;;;;;1999.90;999.90;;;;;;;7.25;100.00;100898.25;5033422;28;20041;-76
2022/11/06 09:09:08;;;;;;;1999.90;999.90;;;;;;;7.40;100.00;100894.06;5022308;28;20041;-76
2022/11/06 09:11:34;;;;;;;1999.90;999.90;;;;;;;7.49;100.00;100893.28;5025758;28;20042;-76
2022/11/06 09:13:59;;;;;;;1999.90;999.90;;;;;;;7.59;100.00;100885.53;5033272;28;20065;-76
2022/11/06 09:16:25;;;;;;;1999.90;999.90;;;;;;;7.73;100.00;100890.97;5033680;28;20045;-77
2022/11/06 09:18:53;;;;;;;1999.90;999.90;;;;;;;7.86;100.00;100884.97;5031132;28;20659;-76
2022/11/06 09:21:18;;;;;;;1999.90;999.90;;;;;;;7.88;100.00;100880.59;5031117;28;20129;-76
2022/11/06 09:23:44;;;;;;;1999.90;999.90;;;;;;;7.88;100.00;100880.59;5023917;28;20591;-76
2022/11/06 09:26:10;;;;;;;1999.90;999.90;;;;;;;7.96;100.00;100877.16;5022017;28;20030;-76
2022/11/06 09:28:35;;;;;;;1999.90;999.90;;;;;;;8.11;100.00;100887.84;5021187;28;20491;-76
2022/11/06 09:31:01;;;;;;;1999.90;999.90;;;;;;;8.15;99.28;100884.38;5025441;28;20045;-76
2022/11/06 09:33:26;;;;;;;1999.90;999.90;;;;;;;8.37;99.91;100879.31;5023915;28;20033;-77
2022/11/06 09:35:52;;;;;;;1999.90;999.90;;;;;;;8.51;99.01;100878.59;5020441;28;20044;-77
2022/11/06 09:38:18;;;;;;;1999.90;999.90;;;;;;;8.62;99.56;100873.41;5023095;28;20037;-76
2022/11/06 09:40:50;;;;;;;1999.90;999.90;;;;;;;8.63;98.85;100875.16;5024274;28;20037;-76
2022/11/06 09:43:26;;;;;;;;;;;;;;;8.62;97.23;100873.41;5023760;28;20033;-76
2022/11/06 09:45:53;;;;;;;1999.90;999.90;;;;;;;8.71;98.10;100869.97;5023803;28;19913;-76
2022/11/06 09:48:24;;;;;;;1999.90;999.90;;;;;;;8.81;98.17;100860.38;5029654;28;20479;-76
2022/11/06 09:50:57;;;;;;;1999.90;999.90;;;;;;;8.80;96.58;100863.88;5029200;28;20037;-76
2022/11/06 09:53:33;;;;;;;1999.90;999.90;;;;;;;8.92;96.90;100863.94;5021531;28;20041;-76
2022/11/06 09:56:01;;;;;;;1999.90;999.90;;;;;;;8.89;96.85;100863.94;5022552;28;20117;-76
2022/11/06 09:58:39;;;;;;;1999.90;999.90;;;;;;;8.93;95.53;100856.09;5024199;28;20033;-76
2022/11/06 10:01:14;;;;;;;1999.90;999.90;;;;;;;9.03;96.35;100862.25;5030600;28;20029;-75
2022/11/06 10:03:45;;;;;;;1999.90;999.90;;;;;;;9.12;95.78;100862.31;5020640;28;20034;-76
2022/11/06 10:06:11;;;;;;;1999.90;999.90;;;;;;;9.13;95.28;100850.91;5026055;28;20033;-76
2022/11/06 10:08:37;;;;;;;1999.90;999.90;;;;;;;9.19;94.70;100843.03;5022411;28;20038;-76
2022/11/06 10:11:14;;;;;;;1999.90;999.90;;;;;;;9.26;94.47;100838.66;5023750;28;20036;-76
2022/11/06 10:14:08;;;;;;;1999.90;999.90;;;;;;;9.34;93.30;100831.69;5025877;28;20068;-76
2022/11/06 10:16:44;;;;;;;1999.90;999.90;;;;;;;9.46;93.94;100825.59;5027349;28;20068;-77
2022/11/06 10:19:23;;;;;;;1999.90;999.90;;;;;;;9.55;92.62;100815.06;5020404;28;20116;-76
2022/11/06 10:22:06;;;;;;;1999.90;999.90;;;;;;;9.52;90.14;100809.78;5017930;28;20578;-76
2022/11/06 10:25:00;;;;;;;1999.90;999.90;;;;;;;9.59;91.74;100811.56;5036929;28;20030;-76
2022/11/06 10:28:02;;;;;;;1999.90;999.90;;;;;;;9.68;91.91;100810.69;5028450;28;20033;-76
2022/11/06 10:30:40;;;;;;;1999.90;999.90;;;;;;;9.80;91.70;100820.41;5022848;28;20056;-76
2022/11/06 10:33:36;;;;;;;1999.90;999.90;;;;;;;9.86;88.61;100805.44;5027546;28;20049;-76
2022/11/06 10:36:08;;;;;;;1999.90;999.90;;;;;;;9.99;87.93;100808.97;5023199;28;20045;-76
2022/11/06 10:38:38;;;;;;;1999.90;999.90;;;;;;;10.07;87.44;100799.31;5023154;28;20048;-76
2022/11/06 10:41:03;;;;;;;1999.90;999.90;;;;;;;10.09;86.58;100797.56;5023176;28;20515;-76
2022/11/06 10:43:58;;;;;;;1999.90;999.90;;;;;;;10.06;85.66;100801.94;5022357;28;20077;-76
2022/11/06 10:46:37;;;;;;;1999.90;999.90;;;;;;;10.13;85.05;100798.44;5021931;28;20559;-76
2022/11/06 10:49:18;;;;;;;1999.90;999.90;;;;;;;10.17;83.57;100783.50;5022566;28;20480;-75
2022/11/06 10:52:13;;;;;;;1999.90;999.90;;;;;;;10.26;83.83;100788.75;5029083;28;20040;-76
2022/11/06 10:54:58;;;;;;;1999.90;999.90;;;;;;;10.34;81.75;100780.88;5021206;28;20030;-76
2022/11/06 10:57:34;;;;;;;1999.90;999.90;;;;;;;10.39;83.27;100777.34;5023299;28;20124;-76
2022/11/06 10:59:59;;;;;;;1999.90;999.90;;;;;;;10.40;81.15;100773.84;5028408;28;20484;-75
2022/11/06 11:02:30;;;;;;;1999.90;999.90;;;;;;;10.48;81.67;100771.19;5031619;28;20053;-75
2022/11/06 11:04:55;;;;;;;1999.90;999.90;;;;;;;10.50;80.58;100770.28;5033948;28;20072;-75
2022/11/06 11:07:21;;;;;;;1999.90;999.90;;;;;;;10.59;80.59;100760.59;5034244;28;20032;-75
2022/11/06 11:09:49;;;;;;;1999.90;999.90;;;;;;;10.55;78.06;100756.22;5031659;28;20384;-76
2022/11/06 11:12:21;;;;;;;1999.90;999.90;;;;;;;10.60;77.69;100762.34;5031710;28;20125;-75
2022/11/06 11:15:04;;;;;;;1999.90;999.90;;;;;;;10.73;76.25;100751.75;5033665;28;20037;-75
2022/11/06 11:17:30;;;;;;;1999.90;999.90;;;;;;;10.93;78.64;100749.03;5031831;28;20033;-75